首页
METAR-TAF:

METAR-TAF

机场 :

Air_Force_Base

Plattsburgh, 紐約州, 美国

纬度: 44-39N, 经度: 073-28W, 海拔: 72米

当前天气观测

该预报发布于47分钟前的15:53 UTC
风速11节,风向北转东北
温度 -5°C
湿度 58%
气压 1026 hPa
能見度: 16.1公里
散云层高于4600英尺

METAR: KPBG 171553Z AUTO 02011KT 10SM SCT046 M05/M12 A3030 RMK AO2 SLP266 T10501117

时间: 11:40 (16:40 UTC)

预报

该预报发布于5小时和17分钟前的11:23 UTC
预报有效从17日的 12点(UTC)到 18日的 12点(UTC)
风速8节,风向西转西北
能見度: 10公里
多云层高于5000英尺
从 17日的 1500点(UTC)
风速8节,风向
能見度: 10公里
少量云层高于5000英尺
从 17日的 2100点(UTC)
风速6节,风向北转东北
能見度: 10公里
天空无云
从 18日的 0500点(UTC)
风速5节,风向
能見度: 10公里
散云层高于16000英尺
从 18日的 1100点(UTC)
风速13节,风向南转南东
能見度: 10公里
阴天层高于10000英尺

TAF: KPBG 171123Z 1712/1812 29008KT P6SM BKN050 FM171500 35008KT P6SM FEW050 FM172100 02006KT P6SM SKC FM180500 17005KT P6SM SCT160 FM181100 16013KT P6SM OVC100

超过4000个机场的气象观测和天气预报(METAR&TAF报告)。

可查询的气象台以黄色和红色小点在地图上表示。

将鼠标移到小点上方,可查看气象台名称。

然后点击查看天气观测和预报。

如需切换地图:点击带黑十字的绿色按钮放大地图;点击带横线的绿色按钮缩小地图;或者点击绿色箭头查看邻近地区的地图。


METAR-TAF: